Time;durP1;ratioP1;P1;durP2;ratioP2;P2;SDS_P1;SDS_P2;PMS_P1;PMS_P2;Temp;Humidity;BMP_temperature;BMP_pressure;BME280_temperature;BME280_humidity;BME280_pressure;Samples;Min_cycle;Max_cycle;Signal;HPM_P1;HPM_P2
2023/10/26 00:01:27;;;;;;;10.55;5.72;;;9.80;99.90;;;;;;4245731;27;20043;-81
2023/10/26 00:03:28;;;;;;;13.07;6.10;;;9.80;99.90;;;;;;4227307;28;20036;-81
2023/10/26 00:05:29;;;;;;;11.65;6.53;;;9.80;99.90;;;;;;4245108;27;20035;-81
2023/10/26 00:07:30;;;;;;;14.02;6.82;;;9.80;99.90;;;;;;4245491;28;20122;-80
2023/10/26 00:09:30;;;;;;;14.18;7.18;;;9.90;99.90;;;;;;4227691;28;20502;-81
2023/10/26 00:11:31;;;;;;;12.05;6.68;;;9.70;99.90;;;;;;4228868;28;20039;-81
2023/10/26 00:13:32;;;;;;;12.63;7.20;;;9.90;99.90;;;;;;4245531;27;20096;-81
2023/10/26 00:15:33;;;;;;;11.65;7.00;;;9.90;99.90;;;;;;4216510;28;20044;-81
2023/10/26 00:17:33;;;;;;;12.52;7.22;;;9.90;99.90;;;;;;4235185;28;20050;-81
2023/10/26 00:19:35;;;;;;;17.48;8.60;;;9.90;99.90;;;;;;4235098;28;20032;-81
2023/10/26 00:21:36;;;;;;;18.35;8.07;;;9.90;99.90;;;;;;4242728;28;20502;-81
2023/10/26 00:23:36;;;;;;;17.95;8.77;;;9.90;99.90;;;;;;4246880;28;20047;-81
2023/10/26 00:25:37;;;;;;;19.30;9.23;;;9.90;99.90;;;;;;4243047;28;20043;-81
2023/10/26 00:27:40;;;;;;;16.45;9.05;;;9.90;99.90;;;;;;4223810;28;20091;-81
2023/10/26 00:29:41;;;;;;;17.67;8.55;;;9.90;99.90;;;;;;4223618;28;20044;-81
2023/10/26 00:31:42;;;;;;;14.82;8.65;;;9.90;99.90;;;;;;4241016;28;20510;-82
2023/10/26 00:33:43;;;;;;;21.38;8.80;;;9.90;99.90;;;;;;4232187;28;20071;-81
2023/10/26 00:35:45;;;;;;;17.77;9.88;;;9.90;99.90;;;;;;4245265;28;20046;-81
2023/10/26 00:37:45;;;;;;;16.73;9.63;;;9.90;99.90;;;;;;4232827;28;20126;-81
2023/10/26 00:39:46;;;;;;;19.60;9.65;;;9.90;99.90;;;;;;4245019;28;20399;-81
2023/10/26 00:41:53;;;;;;;16.42;9.45;;;9.90;99.90;;;;;;4233290;28;20380;-82
2023/10/26 00:43:54;;;;;;;16.77;9.23;;;9.90;99.90;;;;;;4244093;28;20046;-81
2023/10/26 00:45:55;;;;;;;22.63;9.80;;;9.90;99.90;;;;;;4234266;28;20051;-81
2023/10/26 00:47:56;;;;;;;16.63;9.55;;;9.90;99.90;;;;;;4243052;28;20042;-82
2023/10/26 00:49:59;;;;;;;16.92;9.77;;;9.80;99.90;;;;;;4215940;28;20147;-81
2023/10/26 00:52:02;;;;;;;19.92;11.00;;;9.80;99.90;;;;;;4234778;28;20046;-81
2023/10/26 00:54:06;;;;;;;21.27;11.85;;;9.80;99.90;;;;;;4225155;28;20028;-81
2023/10/26 00:56:08;;;;;;;25.52;11.30;;;9.80;99.90;;;;;;4239311;27;20039;-81
2023/10/26 00:58:10;;;;;;;24.80;11.98;;;9.80;99.90;;;;;;4245106;27;20038;-81
2023/10/26 01:00:11;;;;;;;23.80;11.90;;;9.90;99.90;;;;;;4239350;27;20047;-81
2023/10/26 01:02:15;;;;;;;26.52;12.77;;;9.90;99.90;;;;;;4226193;28;20396;-81
2023/10/26 01:04:16;;;;;;;21.25;12.38;;;9.90;99.90;;;;;;4240062;27;20451;-81
2023/10/26 01:06:16;;;;;;;22.77;12.35;;;9.80;99.90;;;;;;4225737;28;20055;-81
2023/10/26 01:08:17;;;;;;;22.55;12.68;;;9.90;99.90;;;;;;4240658;27;20122;-81
2023/10/26 01:10:18;;;;;;;27.95;13.65;;;9.90;99.90;;;;;;4243817;27;20126;-81
2023/10/26 01:12:19;;;;;;;27.65;12.85;;;9.90;99.90;;;;;;4240333;27;20040;-81
2023/10/26 01:14:20;;;;;;;29.70;14.50;;;9.80;99.90;;;;;;4243508;27;20047;-81
2023/10/26 01:16:21;;;;;;;25.65;13.77;;;9.90;99.90;;;;;;4240927;27;20043;-81
2023/10/26 01:18:22;;;;;;;24.65;14.23;;;9.90;99.90;;;;;;4243016;27;20066;-81
2023/10/26 01:20:22;;;;;;;27.90;13.93;;;9.90;99.90;;;;;;4241006;27;20043;-81
2023/10/26 01:22:29;;;;;;;31.02;15.23;;;9.90;99.90;;;;;;4242773;27;20494;-81
2023/10/26 01:24:30;;;;;;;29.77;16.60;;;9.90;99.90;;;;;;4223097;28;20043;-81
2023/10/26 01:26:31;;;;;;;31.63;15.35;;;9.90;99.90;;;;;;4231840;28;20498;-81
2023/10/26 01:28:31;;;;;;;28.17;15.70;;;10.10;99.90;;;;;;4241411;27;20117;-81
2023/10/26 01:30:34;;;;;;;31.77;14.85;;;9.90;99.90;;;;;;4242452;27;20118;-81
2023/10/26 01:32:35;;;;;;;26.95;14.95;;;9.90;99.90;;;;;;4222882;28;20043;-81
2023/10/26 01:34:35;;;;;;;32.85;16.30;;;9.90;99.90;;;;;;4242514;27;20050;-81
2023/10/26 01:36:36;;;;;;;32.15;15.35;;;9.90;99.90;;;;;;4240710;27;20039;-81
2023/10/26 01:38:37;;;;;;;30.45;15.45;;;9.90;99.90;;;;;;4224532;28;20104;-81
2023/10/26 01:40:38;;;;;;;30.13;14.98;;;9.90;99.90;;;;;;4240378;27;20043;-81
2023/10/26 01:42:39;;;;;;;27.27;13.55;;;9.90;99.90;;;;;;4243060;27;20051;-82
2023/10/26 01:44:40;;;;;;;28.60;15.55;;;9.90;99.90;;;;;;4221832;28;20516;-81
2023/10/26 01:46:40;;;;;;;28.52;14.77;;;9.90;99.90;;;;;;4242841;27;20039;-81
2023/10/26 01:48:41;;;;;;;28.25;13.95;;;9.90;99.90;;;;;;4249742;27;20054;-81
2023/10/26 01:50:42;;;;;;;31.67;16.13;;;9.90;99.90;;;;;;4239270;27;20048;-81
2023/10/26 01:52:44;;;;;;;24.88;13.48;;;9.90;99.90;;;;;;4243499;27;20095;-81
2023/10/26 01:54:46;;;;;;;31.25;15.27;;;9.90;99.90;;;;;;4238789;27;20050;-81
2023/10/26 01:56:47;;;;;;;29.25;14.90;;;9.80;99.90;;;;;;4244031;27;20114;-81
2023/10/26 01:58:48;;;;;;;25.70;14.35;;;9.90;99.90;;;;;;4238659;27;20043;-81
2023/10/26 02:00:49;;;;;;;37.33;16.95;;;9.90;99.90;;;;;;4244275;27;20100;-81
2023/10/26 02:02:49;;;;;;;24.17;14.10;;;9.90;99.90;;;;;;4238360;27;20044;-81
2023/10/26 02:04:50;;;;;;;28.65;14.68;;;9.90;99.90;;;;;;4225718;28;20059;-81
2023/10/26 02:06:51;;;;;;;27.83;13.85;;;10.20;99.90;;;;;;4236859;27;20046;-81
2023/10/26 02:08:52;;;;;;;25.40;13.68;;;9.90;99.90;;;;;;4244389;27;20407;-81
2023/10/26 02:10:52;;;;;;;29.83;15.05;;;9.90;99.90;;;;;;4237732;27;20434;-81
2023/10/26 02:12:55;;;;;;;27.50;14.07;;;9.90;99.90;;;;;;4244714;27;20399;-81
2023/10/26 02:14:55;;;;;;;31.80;15.23;;;9.90;99.90;;;;;;4236768;27;20051;-81
2023/10/26 02:16:56;;;;;;;29.23;13.88;;;9.90;99.90;;;;;;4245164;27;20368;-81
2023/10/26 02:18:57;;;;;;;27.20;13.43;;;9.90;99.90;;;;;;4237035;27;20040;-81
2023/10/26 02:21:00;;;;;;;26.27;13.80;;;9.90;99.90;;;;;;4245057;27;20487;-81
2023/10/26 02:23:02;;;;;;;28.92;14.77;;;9.90;99.90;;;;;;4236169;27;20051;-81
2023/10/26 02:25:03;;;;;;;31.42;15.27;;;9.90;99.90;;;;;;4245590;27;20600;-81
2023/10/26 02:27:04;;;;;;;27.35;14.52;;;9.90;99.90;;;;;;4242155;27;20404;-81
2023/10/26 02:29:05;;;;;;;28.75;14.73;;;9.80;99.90;;;;;;4246200;27;20049;-81
2023/10/26 02:31:07;;;;;;;28.17;13.95;;;9.80;99.90;;;;;;4235749;27;20057;-82
2023/10/26 02:33:07;;;;;;;29.25;13.80;;;9.80;99.90;;;;;;4230980;28;20055;-81
2023/10/26 02:35:08;;;;;;;27.88;14.77;;;9.80;99.90;;;;;;4213937;28;20051;-81
2023/10/26 02:37:09;;;;;;;24.40;14.65;;;10.00;99.90;;;;;;4230830;28;20036;-81
2023/10/26 02:39:10;;;;;;;25.52;13.68;;;9.80;99.90;;;;;;4234240;27;20407;-81
2023/10/26 02:41:12;;;;;;;27.17;13.23;;;9.80;99.90;;;;;;4246584;27;20399;-81
2023/10/26 02:43:12;;;;;;;22.63;12.98;;;10.00;99.90;;;;;;4240939;27;20046;-81
2023/10/26 02:45:13;;;;;;;27.63;13.85;;;9.80;99.90;;;;;;4230632;28;20407;-82
2023/10/26 02:47:14;;;;;;;27.70;12.82;;;9.80;99.90;;;;;;4233777;27;20557;-82
2023/10/26 02:49:15;;;;;;;31.85;14.50;;;9.80;99.90;;;;;;4246875;27;20495;-82
2023/10/26 02:51:15;;;;;;;28.98;14.10;;;9.80;99.90;;;;;;4233322;27;20520;-81
2023/10/26 02:53:16;;;;;;;27.45;14.07;;;9.80;99.90;;;;;;4247268;27;20534;-82
2023/10/26 02:55:17;;;;;;;30.95;14.95;;;9.80;99.90;;;;;;4233557;27;20039;-81
2023/10/26 02:57:18;;;;;;;32.47;13.27;;;9.80;99.90;;;;;;4247484;27;20521;-81
2023/10/26 02:59:18;;;;;;;25.98;12.98;;;9.80;99.90;;;;;;4232540;27;20461;-81
2023/10/26 03:01:19;;;;;;;26.42;13.57;;;9.80;99.90;;;;;;4247684;27;20038;-81
2023/10/26 03:03:21;;;;;;;29.77;14.65;;;9.80;99.90;;;;;;4232887;27;20488;-81
2023/10/26 03:05:22;;;;;;;26.38;13.65;;;9.80;99.90;;;;;;4229835;28;20035;-81
2023/10/26 03:07:22;;;;;;;25.63;12.25;;;9.80;99.90;;;;;;4232679;27;20043;-81
2023/10/26 03:09:23;;;;;;;27.48;13.30;;;9.80;99.90;;;;;;4229199;28;20047;-81
2023/10/26 03:11:24;;;;;;;28.15;13.43;;;9.80;99.90;;;;;;4197401;28;20179;-81
2023/10/26 03:13:25;;;;;;;25.65;12.63;;;9.90;99.90;;;;;;4248150;27;20397;-81
2023/10/26 03:15:25;;;;;;;21.80;12.25;;;9.80;99.90;;;;;;4232176;28;20119;-81
2023/10/26 03:17:26;;;;;;;23.10;12.32;;;9.80;99.90;;;;;;4248272;27;20104;-81
2023/10/26 03:19:27;;;;;;;27.10;12.93;;;9.80;99.90;;;;;;4231619;28;20063;-81
2023/10/26 03:21:28;;;;;;;29.02;14.70;;;9.80;99.90;;;;;;4230297;28;20088;-81
2023/10/26 03:23:28;;;;;;;26.60;13.13;;;9.80;99.90;;;;;;4231069;28;20044;-81
2023/10/26 03:25:29;;;;;;;25.02;13.50;;;9.80;99.90;;;;;;4248495;27;20046;-81
2023/10/26 03:27:30;;;;;;;28.40;14.05;;;9.80;99.90;;;;;;4234324;27;20031;-81
2023/10/26 03:29:31;;;;;;;28.77;13.75;;;9.80;99.90;;;;;;4231802;28;20039;-81
2023/10/26 03:31:33;;;;;;;27.23;13.77;;;9.70;99.90;;;;;;4247728;27;20056;-81
2023/10/26 03:33:34;;;;;;;24.77;13.10;;;9.80;99.90;;;;;;4241177;27;20042;-81
2023/10/26 03:35:37;;;;;;;26.00;12.85;;;9.80;99.90;;;;;;4247502;27;20118;-81
2023/10/26 03:37:38;;;;;;;32.15;14.25;;;9.80;99.90;;;;;;4214393;28;20047;-81
2023/10/26 03:39:39;;;;;;;29.15;13.57;;;9.80;99.90;;;;;;4246926;27;20433;-81
2023/10/26 03:41:40;;;;;;;29.70;14.32;;;9.80;99.90;;;;;;4233043;27;20043;-81
2023/10/26 03:43:40;;;;;;;25.80;12.80;;;9.50;99.90;;;;;;4246614;27;20078;-81
2023/10/26 03:45:45;;;;;;;30.17;15.00;;;9.70;99.90;;;;;;4198336;28;20063;-81
2023/10/26 03:47:45;;;;;;;28.08;13.88;;;9.70;99.90;;;;;;4227030;28;20644;-81
2023/10/26 03:49:50;;;;;;;25.83;14.90;;;9.70;99.90;;;;;;4233857;27;20047;-81
2023/10/26 03:51:50;;;;;;;32.88;15.43;;;9.70;99.90;;;;;;4210868;28;20112;-81
2023/10/26 03:53:51;;;;;;;31.30;13.82;;;9.70;99.90;;;;;;4200800;28;20419;-81
2023/10/26 03:55:52;;;;;;;27.95;14.70;;;9.70;99.90;;;;;;4210981;28;20047;-81
2023/10/26 03:57:53;;;;;;;32.47;15.25;;;9.70;99.90;;;;;;4200997;28;20036;-81
2023/10/26 03:59:54;;;;;;;31.00;14.88;;;9.70;99.90;;;;;;4210386;28;20052;-81
2023/10/26 04:01:54;;;;;;;35.88;15.13;;;9.70;99.90;;;;;;4201366;28;20040;-82
2023/10/26 04:03:55;;;;;;;29.98;15.60;;;9.60;99.90;;;;;;4210246;28;20203;-81
2023/10/26 04:05:56;;;;;;;28.38;14.38;;;9.70;99.90;;;;;;4201327;28;20492;-81
2023/10/26 04:08:00;;;;;;;30.73;13.77;;;9.70;99.90;;;;;;4209326;28;20041;-81
2023/10/26 04:10:05;;;;;;;30.13;14.70;;;9.70;99.90;;;;;;4200981;28;20028;-81
2023/10/26 04:12:06;;;;;;;31.88;16.13;;;9.70;99.90;;;;;;4208725;28;20082;-82
2023/10/26 04:14:07;;;;;;;33.22;14.90;;;9.60;99.90;;;;;;4201812;28;20048;-81
2023/10/26 04:16:08;;;;;;;36.10;15.25;;;9.60;99.90;;;;;;4208542;28;20055;-81
2023/10/26 04:18:09;;;;;;;36.10;15.05;;;9.60;99.90;;;;;;4202953;28;20036;-81
2023/10/26 04:20:10;;;;;;;26.67;13.52;;;9.60;99.90;;;;;;4207022;28;20084;-79
2023/10/26 04:22:11;;;;;;;34.28;15.48;;;9.60;99.90;;;;;;4202715;28;20044;-81
2023/10/26 04:24:14;;;;;;;30.08;15.55;;;9.60;99.90;;;;;;4207954;28;20103;-81
2023/10/26 04:26:14;;;;;;;32.50;14.98;;;9.60;99.90;;;;;;4203799;28;20728;-81
2023/10/26 04:28:17;;;;;;;34.10;15.38;;;9.60;99.90;;;;;;4213668;28;20178;-82
2023/10/26 04:30:18;;;;;;;29.27;14.23;;;9.60;99.90;;;;;;4216039;28;20044;-82
2023/10/26 04:32:18;;;;;;;31.80;15.60;;;9.50;99.90;;;;;;4210519;28;20110;-82
2023/10/26 04:34:20;;;;;;;27.25;14.73;;;9.60;99.90;;;;;;4207845;28;20071;-81
2023/10/26 04:36:21;;;;;;;29.13;14.75;;;9.60;99.90;;;;;;4209994;28;20123;-82
2023/10/26 04:38:22;;;;;;;27.52;14.43;;;9.60;99.90;;;;;;4207848;28;20048;-82
2023/10/26 04:40:23;;;;;;;29.73;14.35;;;9.60;99.90;;;;;;4209550;28;20409;-82
2023/10/26 04:42:23;;;;;;;28.75;13.35;;;9.60;99.90;;;;;;4208440;28;20478;-81
2023/10/26 04:44:24;;;;;;;28.80;14.65;;;9.60;99.90;;;;;;4207384;28;20040;-82
2023/10/26 04:46:25;;;;;;;32.50;14.45;;;9.60;99.90;;;;;;4209022;28;20040;-81
2023/10/26 04:48:26;;;;;;;27.55;14.02;;;9.60;99.90;;;;;;4207204;28;20044;-81
2023/10/26 04:50:27;;;;;;;26.35;12.85;;;9.60;99.90;;;;;;4219903;28;20048;-82
2023/10/26 04:52:28;;;;;;;30.85;14.60;;;9.60;99.90;;;;;;4242159;27;20053;-80
2023/10/26 04:54:29;;;;;;;29.52;14.38;;;9.60;99.90;;;;;;4242357;27;20414;-81
2023/10/26 04:56:30;;;;;;;34.38;15.13;;;9.50;99.90;;;;;;4242884;27;20484;-81
2023/10/26 04:58:31;;;;;;;25.20;12.73;;;9.50;99.90;;;;;;4241768;27;20040;-81
2023/10/26 05:00:32;;;;;;;32.80;14.02;;;9.50;99.90;;;;;;4240587;27;20383;-81
2023/10/26 05:02:32;;;;;;;29.13;14.18;;;9.50;99.90;;;;;;4230430;28;20040;-81
2023/10/26 05:04:33;;;;;;;27.23;13.30;;;9.50;99.90;;;;;;4243017;27;20035;-82
2023/10/26 05:06:34;;;;;;;28.67;13.98;;;9.40;99.90;;;;;;4240701;27;20043;-82
2023/10/26 05:08:35;;;;;;;30.67;13.18;;;9.40;99.90;;;;;;4243576;27;20047;-82
2023/10/26 05:10:36;;;;;;;24.20;12.40;;;9.30;99.90;;;;;;4241022;27;20051;-82
2023/10/26 05:12:37;;;;;;;27.75;13.30;;;9.30;99.90;;;;;;4243511;27;20487;-82
2023/10/26 05:14:40;;;;;;;27.35;13.57;;;9.30;99.90;;;;;;4240487;27;20079;-81
2023/10/26 05:16:41;;;;;;;28.00;14.02;;;9.40;99.90;;;;;;4225788;28;20114;-82
2023/10/26 05:18:42;;;;;;;32.78;15.57;;;9.30;99.90;;;;;;4239895;27;20050;-81
2023/10/26 05:20:51;;;;;;;26.98;14.02;;;9.30;99.90;;;;;;4243869;27;20046;-82
2023/10/26 05:22:52;;;;;;;28.48;14.38;;;9.40;99.90;;;;;;4232498;28;20074;-82
2023/10/26 05:24:53;;;;;;;27.17;13.88;;;9.40;99.90;;;;;;4238495;27;20073;-81
2023/10/26 05:26:54;;;;;;;31.60;14.55;;;9.40;99.90;;;;;;4240298;27;20531;-81
2023/10/26 05:28:54;;;;;;;26.90;13.90;;;9.40;99.90;;;;;;4232247;28;20059;-81
2023/10/26 05:30:55;;;;;;;26.45;14.07;;;9.40;99.90;;;;;;4237624;27;20555;-81
2023/10/26 05:32:56;;;;;;;31.27;14.77;;;9.40;99.90;;;;;;4246014;27;20118;-81
2023/10/26 05:34:57;;;;;;;32.15;15.75;;;9.50;99.90;;;;;;4237865;27;20043;-82
2023/10/26 05:36:58;;;;;;;27.70;13.18;;;9.40;99.90;;;;;;4246122;27;20078;-82
2023/10/26 05:38:58;;;;;;;31.45;14.30;;;9.50;99.90;;;;;;4237224;27;20051;-81
2023/10/26 05:40:59;;;;;;;27.48;13.27;;;9.40;99.90;;;;;;4244326;27;20039;-81
2023/10/26 05:43:00;;;;;;;35.85;14.07;;;8.90;99.90;;;;;;4240980;27;20092;-81
2023/10/26 05:45:01;;;;;;;43.15;14.95;;;9.40;99.90;;;;;;4250274;27;20039;-82
2023/10/26 05:47:01;;;;;;;36.53;15.27;;;9.40;99.90;;;;;;4240463;27;20063;-81
2023/10/26 05:49:02;;;;;;;32.58;13.93;;;9.40;99.90;;;;;;4218379;28;20106;-81
2023/10/26 05:51:03;;;;;;;33.33;14.38;;;9.40;99.90;;;;;;4246361;27;20059;-81
2023/10/26 05:53:05;;;;;;;34.85;15.77;;;9.30;99.90;;;;;;4236311;27;20407;-82
2023/10/26 05:55:06;;;;;;;33.60;14.65;;;9.30;99.90;;;;;;4246415;27;20099;-81
2023/10/26 05:57:07;;;;;;;31.50;14.85;;;9.30;99.90;;;;;;4246825;27;20110;-82
2023/10/26 05:59:08;;;;;;;33.58;14.40;;;9.30;99.90;;;;;;4236737;27;20039;-81
2023/10/26 06:01:11;;;;;;;31.88;14.38;;;9.20;99.90;;;;;;4247363;27;20039;-81
2023/10/26 06:03:12;;;;;;;30.75;13.45;;;9.20;99.90;;;;;;4235232;27;20039;-82
2023/10/26 06:05:13;;;;;;;30.48;13.88;;;9.80;99.90;;;;;;4229063;28;20043;-81
2023/10/26 06:07:14;;;;;;;30.05;14.23;;;9.20;99.90;;;;;;4234760;27;20031;-81
2023/10/26 06:09:15;;;;;;;31.30;14.57;;;9.20;99.90;;;;;;4248181;27;20132;-81
2023/10/26 06:11:16;;;;;;;29.60;14.07;;;9.20;99.90;;;;;;4216325;28;20063;-82
2023/10/26 06:13:17;;;;;;;32.47;13.40;;;9.40;99.90;;;;;;4247879;27;20080;-82
2023/10/26 06:15:18;;;;;;;26.75;13.07;;;9.10;99.90;;;;;;4234070;27;20472;-81
2023/10/26 06:17:19;;;;;;;24.33;12.05;;;9.40;99.90;;;;;;4229913;28;20040;-82
2023/10/26 06:19:19;;;;;;;28.15;12.77;;;9.00;99.90;;;;;;4233757;27;20507;-82
2023/10/26 06:21:21;;;;;;;27.38;13.40;;;8.90;99.90;;;;;;4232627;28;20048;-82
2023/10/26 06:23:21;;;;;;;26.35;12.75;;;8.90;99.90;;;;;;4248017;27;20039;-81
2023/10/26 06:25:25;;;;;;;24.58;12.77;;;8.80;99.90;;;;;;4233357;27;20376;-82
2023/10/26 06:27:25;;;;;;;28.45;12.98;;;8.80;99.90;;;;;;4249467;27;20065;-82
2023/10/26 06:29:26;;;;;;;26.17;12.40;;;8.80;99.90;;;;;;4232667;27;20047;-81
2023/10/26 06:31:27;;;;;;;26.42;13.63;;;8.70;99.90;;;;;;4231512;28;20423;-82
2023/10/26 06:33:28;;;;;;;26.80;12.85;;;8.70;99.90;;;;;;4249674;27;20055;-81
2023/10/26 06:35:29;;;;;;;79.50;14.73;;;8.80;99.90;;;;;;4249909;27;20043;-82
2023/10/26 06:37:30;;;;;;;44.47;14.43;;;8.70;99.90;;;;;;4232585;28;20051;-82
2023/10/26 06:39:31;;;;;;;134.73;17.05;;;8.80;99.90;;;;;;4249006;27;20039;-81
2023/10/26 06:41:32;;;;;;;103.40;15.07;;;8.80;99.90;;;;;;4232684;27;20043;-82
2023/10/26 06:43:33;;;;;;;79.75;12.77;;;9.00;99.90;;;;;;4230487;28;20051;-82
2023/10/26 06:45:34;;;;;;;208.77;15.38;;;8.70;99.90;;;;;;4232667;27;20044;-83
2023/10/26 06:47:35;;;;;;;113.20;12.10;;;8.80;99.90;;;;;;4247783;27;20050;-82
2023/10/26 06:49:36;;;;;;;55.38;11.10;;;8.80;99.90;;;;;;4233291;27;20791;-83
2023/10/26 06:51:36;;;;;;;241.88;16.23;;;8.90;99.90;;;;;;4247386;27;20058;-82
2023/10/26 06:53:37;;;;;;;172.15;13.27;;;8.80;99.90;;;;;;4232802;27;20044;-81
2023/10/26 06:55:38;;;;;;;131.68;12.13;;;8.80;99.90;;;;;;4247302;27;20051;-82
2023/10/26 06:57:39;;;;;;;150.25;12.95;;;8.80;99.90;;;;;;4233599;27;20396;-81
2023/10/26 06:59:41;;;;;;;66.60;11.60;;;8.80;99.90;;;;;;4247037;27;20073;-81
2023/10/26 07:01:42;;;;;;;53.25;10.68;;;8.80;99.90;;;;;;4234002;27;20480;-81
2023/10/26 07:03:43;;;;;;;116.80;11.45;;;8.80;99.90;;;;;;4246779;27;20118;-81
2023/10/26 07:05:43;;;;;;;67.43;10.50;;;8.90;99.90;;;;;;4233974;27;20039;-81
2023/10/26 07:07:44;;;;;;;57.40;10.00;;;8.80;99.90;;;;;;4228553;28;20039;-81
2023/10/26 07:09:45;;;;;;;64.05;10.63;;;9.20;99.90;;;;;;4244450;27;20099;-81
2023/10/26 07:11:46;;;;;;;26.55;9.13;;;8.80;99.90;;;;;;4246187;27;20035;-81
2023/10/26 07:13:47;;;;;;;35.28;9.95;;;8.90;99.90;;;;;;4233148;27;20036;-80
2023/10/26 07:15:47;;;;;;;42.60;10.32;;;8.90;99.90;;;;;;4216471;28;20432;-81
2023/10/26 07:17:48;;;;;;;19.67;9.48;;;8.90;99.90;;;;;;4245654;27;20487;-81
2023/10/26 07:19:52;;;;;;;27.10;9.93;;;8.90;99.90;;;;;;4234677;27;20046;-81
2023/10/26 07:22:02;;;;;;;26.33;10.40;;;8.90;99.90;;;;;;4244630;27;20116;-81
2023/10/26 07:24:04;;;;;;;27.70;10.05;;;8.90;99.90;;;;;;4236659;27;20039;-81
2023/10/26 07:26:04;;;;;;;32.67;10.13;;;9.00;99.90;;;;;;4244849;27;20048;-80
2023/10/26 07:28:05;;;;;;;34.55;10.52;;;9.00;99.90;;;;;;4248420;27;20360;-81
2023/10/26 07:30:06;;;;;;;23.27;10.38;;;9.20;99.90;;;;;;4242690;27;20054;-81
2023/10/26 07:32:16;;;;;;;21.02;10.85;;;9.00;99.90;;;;;;4237048;27;20043;-81
2023/10/26 07:34:17;;;;;;;20.55;10.38;;;9.00;99.90;;;;;;4241317;27;20479;-80
2023/10/26 07:36:18;;;;;;;22.90;11.13;;;9.00;99.90;;;;;;4238433;27;20054;-80
2023/10/26 07:38:19;;;;;;;19.55;10.93;;;9.00;99.90;;;;;;4240746;27;20043;-80
2023/10/26 07:40:20;;;;;;;21.42;10.93;;;9.10;99.90;;;;;;4238130;27;20531;-80
2023/10/26 07:42:21;;;;;;;21.40;10.32;;;9.10;99.90;;;;;;4240792;27;20400;-80
2023/10/26 07:44:22;;;;;;;24.15;12.15;;;9.10;99.90;;;;;;4238932;27;20041;-80
2023/10/26 07:46:23;;;;;;;26.15;12.68;;;9.20;99.90;;;;;;4240006;27;20093;-80
2023/10/26 07:48:25;;;;;;;32.47;13.80;;;9.30;99.90;;;;;;4238818;27;20796;-80
2023/10/26 07:50:26;;;;;;;37.38;15.18;;;9.60;99.90;;;;;;4239585;27;20055;-80
2023/10/26 07:52:26;;;;;;;36.17;15.30;;;9.30;99.90;;;;;;4239413;27;20047;-81
2023/10/26 07:54:27;;;;;;;34.33;14.68;;;9.30;99.90;;;;;;4239730;27;20119;-81
2023/10/26 07:56:29;;;;;;;35.38;15.15;;;9.80;99.90;;;;;;4239669;27;20039;-81
2023/10/26 07:58:30;;;;;;;37.63;16.60;;;9.40;99.90;;;;;;4239451;27;20035;-80
2023/10/26 08:00:31;;;;;;;40.47;15.68;;;9.40;99.90;;;;;;4239472;27;20043;-80
2023/10/26 08:02:32;;;;;;;32.60;14.60;;;9.50;99.90;;;;;;4239095;27;20396;-81
2023/10/26 08:04:33;;;;;;;32.60;14.80;;;9.50;99.90;;;;;;4239658;27;20049;-81
2023/10/26 08:06:34;;;;;;;34.47;16.40;;;9.50;99.90;;;;;;4238514;27;20075;-81
2023/10/26 08:08:35;;;;;;;32.85;14.02;;;9.60;99.90;;;;;;4240068;27;20125;-80
2023/10/26 08:10:37;;;;;;;30.80;13.68;;;9.50;99.90;;;;;;4236924;28;20043;-81
2023/10/26 08:12:38;;;;;;;26.25;12.57;;;9.60;99.90;;;;;;4240998;27;20495;-81
2023/10/26 08:14:39;;;;;;;34.50;14.20;;;9.50;99.90;;;;;;4219692;28;20054;-81
2023/10/26 08:16:41;;;;;;;30.98;14.43;;;9.60;99.90;;;;;;4241238;27;20448;-81
2023/10/26 08:18:42;;;;;;;32.20;14.75;;;9.80;99.90;;;;;;4219286;28;20051;-81
2023/10/26 08:20:50;;;;;;;30.25;13.93;;;9.60;99.90;;;;;;4241411;28;20080;-81
2023/10/26 08:22:52;;;;;;;32.63;13.90;;;9.60;99.90;;;;;;4236090;28;20047;-81
2023/10/26 08:24:53;;;;;;;32.17;13.70;;;9.70;99.90;;;;;;4243256;28;20047;-80
2023/10/26 08:26:54;;;;;;;31.92;13.88;;;9.70;99.90;;;;;;4235653;28;20082;-82
2023/10/26 08:28:55;;;;;;;29.17;13.35;;;9.70;99.90;;;;;;4237319;28;20100;-82
2023/10/26 08:30:55;;;;;;;25.30;12.50;;;9.70;99.90;;;;;;4240142;28;20084;-82
2023/10/26 08:32:56;;;;;;;26.55;12.75;;;9.80;99.90;;;;;;4242881;28;20526;-82
2023/10/26 08:34:58;;;;;;;28.92;13.13;;;9.90;99.90;;;;;;4235042;28;20380;-82
2023/10/26 08:37:00;;;;;;;25.60;12.38;;;9.80;99.90;;;;;;4243469;28;20050;-82
2023/10/26 08:39:01;;;;;;;24.60;11.88;;;9.80;99.90;;;;;;4234822;28;20086;-83
2023/10/26 08:41:02;;;;;;;23.35;12.13;;;9.90;99.90;;;;;;4244208;28;20043;-83
2023/10/26 08:43:05;;;;;;;29.40;12.13;;;9.90;99.90;;;;;;4243735;28;20081;-83
2023/10/26 08:45:12;;;;;;;29.55;11.80;;;9.80;99.90;;;;;;4244792;28;20073;-83
2023/10/26 08:47:17;;;;;;;27.55;12.65;;;9.90;99.90;;;;;;4215769;28;20048;-83
2023/10/26 08:49:21;;;;;;;24.58;12.15;;;9.90;99.90;;;;;;4228371;28;20061;-83
2023/10/26 08:51:22;;;;;;;25.92;12.45;;;9.90;99.90;;;;;;4230417;28;20048;-83
2023/10/26 08:53:23;;;;;;;27.40;13.07;;;9.90;99.90;;;;;;4245537;28;20050;-83
2023/10/26 08:55:25;;;;;;;27.92;13.10;;;10.00;99.90;;;;;;4231659;28;20857;-83
2023/10/26 08:57:27;;;;;;;27.60;13.48;;;10.00;99.90;;;;;;4228189;28;20114;-82
2023/10/26 08:59:28;;;;;;;26.40;12.77;;;10.10;99.90;;;;;;4212592;28;20048;-83
2023/10/26 09:01:46;;;;;;;26.30;13.15;;;10.10;99.90;;;;;;4236205;27;1280344;-82
2023/10/26 09:03:47;;;;;;;27.52;13.00;;;10.20;99.90;;;;;;4241860;28;20551;-84
2023/10/26 09:05:56;;;;;;;24.13;12.10;;;10.10;99.90;;;;;;4248315;27;20043;-82
2023/10/26 09:07:57;;;;;;;30.85;12.65;;;10.10;99.90;;;;;;4223503;28;20048;-84
2023/10/26 09:09:58;;;;;;;26.90;11.98;;;10.10;99.90;;;;;;4230448;28;20044;-82
2023/10/26 09:12:09;;;;;;;23.10;11.02;;;10.10;99.90;;;;;;4242862;28;20043;-82
2023/10/26 09:14:21;;;;;;;24.88;12.05;;;10.10;99.90;;;;;;4238385;28;20059;-82
2023/10/26 09:16:36;;;;;;;24.45;11.90;;;10.10;99.90;;;;;;4234798;28;20043;-82
2023/10/26 09:18:37;;;;;;;23.95;12.23;;;10.10;99.90;;;;;;4217272;28;20127;-82
2023/10/26 09:20:38;;;;;;;26.92;12.60;;;10.10;99.90;;;;;;4237139;28;20043;-84
2023/10/26 09:22:40;;;;;;;27.77;13.27;;;10.10;99.90;;;;;;4244575;28;20101;-85
2023/10/26 09:24:41;;;;;;;27.17;13.15;;;10.10;99.90;;;;;;4233643;28;20043;-83
2023/10/26 09:26:43;;;;;;;33.00;13.90;;;10.20;99.90;;;;;;4237652;28;20078;-83
2023/10/26 09:28:50;;;;;;;26.92;13.52;;;10.20;99.90;;;;;;4233507;28;20052;-82
2023/10/26 09:31:03;;;;;;;31.63;14.32;;;10.30;99.90;;;;;;4221900;28;20043;-82
2023/10/26 09:33:04;;;;;;;31.58;14.35;;;10.30;99.90;;;;;;4229977;28;20087;-81
2023/10/26 09:35:05;;;;;;;29.20;13.18;;;10.30;99.90;;;;;;4224054;28;20043;-81
2023/10/26 09:37:07;;;;;;;32.45;14.98;;;10.30;99.90;;;;;;4248178;27;20134;-81
2023/10/26 09:39:08;;;;;;;28.05;14.07;;;10.30;99.90;;;;;;4240929;28;20051;-81
2023/10/26 09:41:12;;;;;;;30.35;13.50;;;10.40;99.90;;;;;;4228588;28;20040;-81
2023/10/26 09:43:12;;;;;;;31.65;14.30;;;10.40;99.90;;;;;;4241518;28;20047;-81
2023/10/26 09:45:13;;;;;;;31.25;14.80;;;10.50;99.90;;;;;;4231256;28;20817;-81
2023/10/26 09:47:17;;;;;;;33.38;15.27;;;10.50;99.90;;;;;;4244139;28;20130;-81
2023/10/26 09:49:17;;;;;;;36.53;16.42;;;10.50;99.90;;;;;;4229662;28;20056;-81
2023/10/26 09:51:21;;;;;;;34.95;15.15;;;10.60;99.90;;;;;;4242433;28;20413;-81
2023/10/26 09:53:22;;;;;;;34.05;14.98;;;10.60;99.90;;;;;;4227278;28;20486;-81
2023/10/26 09:55:23;;;;;;;35.08;15.95;;;10.60;99.90;;;;;;4261284;27;20043;-81
2023/10/26 09:57:49;;;;;;;29.35;14.68;;;10.60;99.90;;;;;;4210379;28;20066;-82
2023/10/26 09:59:53;;;;;;;30.83;15.43;;;10.60;99.90;;;;;;4219402;27;20055;-82
2023/10/26 10:01:54;;;;;;;29.25;14.07;;;10.60;99.90;;;;;;4239548;28;20428;-82
2023/10/26 10:03:55;;;;;;;33.67;16.52;;;10.60;99.90;;;;;;4230158;28;20110;-82
2023/10/26 10:05:56;;;;;;;31.33;15.85;;;10.70;99.90;;;;;;4257989;27;20043;-81
2023/10/26 10:07:57;;;;;;;31.30;15.10;;;10.70;99.90;;;;;;4247137;27;20099;-82
2023/10/26 10:10:06;;;;;;;33.35;14.52;;;10.80;99.90;;;;;;4248840;27;20046;-82
2023/10/26 10:12:12;;;;;;;29.23;15.07;;;10.70;99.90;;;;;;4239384;27;20119;-82
2023/10/26 10:14:48;;;;;;;36.88;17.55;;;10.70;99.90;;;;;;4243476;27;20118;-82
2023/10/26 10:16:50;;;;;;;32.70;15.45;;;10.70;99.90;;;;;;4244630;27;20043;-82
2023/10/26 10:19:23;;;;;;;31.08;15.43;;;10.80;99.90;;;;;;4220055;28;20095;-81
2023/10/26 10:21:36;;;;;;;32.42;14.02;;;10.80;99.90;;;;;;4249136;27;20035;-82
2023/10/26 10:23:37;;;;;;;29.30;14.82;;;10.80;99.90;;;;;;4218700;27;20452;-82
2023/10/26 10:25:49;;;;;;;26.10;14.07;;;10.70;99.90;;;;;;4248449;27;20047;-82